createdAt,value
2019-05-20T00:01:36.514Z,85.83
2019-05-20T00:03:43.128Z,85.85
2019-05-20T00:05:49.617Z,85.84
2019-05-20T00:07:56.160Z,85.98
2019-05-20T00:10:02.553Z,86.01
2019-05-20T00:12:09.097Z,86.00
2019-05-20T00:14:15.594Z,86.11
2019-05-20T00:16:22.046Z,86.12
2019-05-20T00:18:28.453Z,86.20
2019-05-20T00:20:34.919Z,86.26
2019-05-20T00:22:41.314Z,86.36
2019-05-20T00:24:47.757Z,86.42
2019-05-20T00:26:54.142Z,86.43
2019-05-20T00:29:00.604Z,86.60
2019-05-20T00:31:07.076Z,86.63
2019-05-20T00:33:13.608Z,86.65
2019-05-20T00:35:20.277Z,86.76
2019-05-20T00:37:26.821Z,86.77
2019-05-20T00:39:33.321Z,86.88
2019-05-20T00:41:39.717Z,86.96
2019-05-20T00:43:46.508Z,87.00
2019-05-20T00:45:53.009Z,87.02
2019-05-20T00:47:59.545Z,87.01
2019-05-20T00:50:08.183Z,87.08
2019-05-20T00:52:14.728Z,87.12
2019-05-20T00:54:21.317Z,87.24
2019-05-20T00:56:27.962Z,87.25
2019-05-20T00:58:34.498Z,87.36
2019-05-20T01:00:41.455Z,87.49
2019-05-20T01:02:56.488Z,87.50
2019-05-20T01:04:56.060Z,87.70
2019-05-20T01:07:02.558Z,87.80
2019-05-20T01:09:09.481Z,87.91
2019-05-20T01:11:16.019Z,87.98
2019-05-20T01:13:22.484Z,88.08
2019-05-20T01:15:29.018Z,88.27
2019-05-20T01:17:35.646Z,88.34
2019-05-20T01:19:42.089Z,88.41
2019-05-20T01:21:48.603Z,88.60
2019-05-20T01:23:55.121Z,88.70
2019-05-20T01:26:01.527Z,88.75
2019-05-20T01:28:07.997Z,88.87
2019-05-20T01:30:16.667Z,88.96
2019-05-20T01:32:23.115Z,89.00
2019-05-20T01:34:30.377Z,89.06
2019-05-20T01:36:36.909Z,89.04
2019-05-20T01:38:43.304Z,89.04
2019-05-20T01:40:49.802Z,89.07
2019-05-20T01:42:56.266Z,89.20
2019-05-20T01:45:02.730Z,89.18
2019-05-20T01:47:09.438Z,89.29
2019-05-20T01:49:15.969Z,89.31
2019-05-20T01:51:24.292Z,89.38
2019-05-20T01:53:31.467Z,89.46
2019-05-20T01:55:37.988Z,89.44
2019-05-20T01:57:44.411Z,89.56
2019-05-20T01:59:50.876Z,89.72
2019-05-20T02:01:57.305Z,89.68
2019-05-20T02:04:03.812Z,89.78
2019-05-20T02:06:10.395Z,89.79
2019-05-20T02:08:17.016Z,89.87
2019-05-20T02:10:23.696Z,89.91
2019-05-20T02:12:30.198Z,89.98
2019-05-20T02:14:41.065Z,89.93
2019-05-20T02:16:48.399Z,89.94
2019-05-20T02:18:54.868Z,89.92
2019-05-20T02:21:01.262Z,89.99
2019-05-20T02:23:14.829Z,89.98
2019-05-20T02:25:22.417Z,89.89
2019-05-20T02:27:28.948Z,89.82
2019-05-20T02:29:35.336Z,89.67
2019-05-20T02:31:41.963Z,89.65
2019-05-20T02:33:52.129Z,89.48
2019-05-20T02:35:56.527Z,89.33
2019-05-20T02:38:03.485Z,89.19
2019-05-20T02:40:10.678Z,89.03
2019-05-20T02:42:17.145Z,89.04
2019-05-20T02:44:23.654Z,89.06
2019-05-20T02:46:30.416Z,88.97
2019-05-20T02:48:36.953Z,88.87
2019-05-20T02:50:43.526Z,88.70
2019-05-20T02:52:49.986Z,88.47
2019-05-20T02:54:56.543Z,88.46
2019-05-20T02:57:02.978Z,88.33
2019-05-20T02:59:09.514Z,88.20
2019-05-20T03:01:16.001Z,88.03
2019-05-20T03:03:22.605Z,87.92
2019-05-20T03:05:29.140Z,87.67
2019-05-20T03:07:35.552Z,87.41
2019-05-20T03:09:41.966Z,87.27
2019-05-20T03:11:48.355Z,86.97
2019-05-20T03:13:54.740Z,86.79
2019-05-20T03:16:01.281Z,86.53
2019-05-20T03:18:08.667Z,86.35
2019-05-20T03:20:15.828Z,86.08
2019-05-20T03:22:22.347Z,85.88
2019-05-20T03:24:28.832Z,85.64
2019-05-20T03:26:35.466Z,85.28
2019-05-20T03:28:42.065Z,85.03
2019-05-20T03:30:48.625Z,84.81
2019-05-20T03:32:55.092Z,84.43
2019-05-20T03:35:02.249Z,84.06
2019-05-20T03:37:08.978Z,83.68
2019-05-20T03:39:15.376Z,83.52
2019-05-20T03:41:21.894Z,82.93
2019-05-20T03:43:28.435Z,82.45
2019-05-20T03:45:35.040Z,82.23
2019-05-20T03:47:43.330Z,81.78
2019-05-20T03:49:49.856Z,81.45
2019-05-20T03:51:56.306Z,81.02
2019-05-20T03:54:02.856Z,80.90
2019-05-20T03:56:09.361Z,80.42
2019-05-20T03:58:15.765Z,79.97
2019-05-20T04:00:44.666Z,79.61
2019-05-20T04:02:51.055Z,79.09
2019-05-20T04:05:02.766Z,78.47
2019-05-20T04:07:07.331Z,78.00
2019-05-20T04:09:13.937Z,77.02
2019-05-20T04:11:20.390Z,75.10
2019-05-20T04:13:26.913Z,71.06
2019-05-20T04:15:33.561Z,67.47
2019-05-20T04:17:39.990Z,64.39
2019-05-20T04:19:46.466Z,61.65
2019-05-20T04:21:53.020Z,60.65
2019-05-20T04:24:01.425Z,58.42
2019-05-20T04:26:07.845Z,56.61
2019-05-20T04:28:14.365Z,54.87
2019-05-20T04:30:21.149Z,53.69
2019-05-20T04:32:27.690Z,52.15
2019-05-20T04:34:37.663Z,50.59
2019-05-20T04:36:44.060Z,50.55
2019-05-20T04:38:50.485Z,49.39
2019-05-20T04:40:56.991Z,47.95
2019-05-20T04:43:03.449Z,46.86
2019-05-20T04:45:10.782Z,45.85
2019-05-20T04:47:17.323Z,44.38
2019-05-20T04:49:23.781Z,45.41
2019-05-20T04:51:30.273Z,46.76
2019-05-20T04:53:36.691Z,46.80
2019-05-20T04:55:43.301Z,46.05
2019-05-20T04:57:49.712Z,44.51
2019-05-20T04:59:57.426Z,43.43
2019-05-20T05:02:03.817Z,43.36
2019-05-20T05:04:10.287Z,42.43
2019-05-20T05:06:16.941Z,40.96
2019-05-20T05:08:23.889Z,40.31
2019-05-20T05:10:30.371Z,41.27
2019-05-20T05:12:38.158Z,39.86
2019-05-20T05:14:44.752Z,38.81
2019-05-20T05:16:51.418Z,39.85
2019-05-20T05:18:57.891Z,38.75
2019-05-20T05:21:04.489Z,37.13
2019-05-20T05:23:11.409Z,38.49
2019-05-20T05:25:17.952Z,38.89
2019-05-20T05:27:24.478Z,39.45
2019-05-20T05:29:31.082Z,38.70
2019-05-20T05:31:38.118Z,37.88
2019-05-20T05:33:44.657Z,38.88
2019-05-20T05:35:53.726Z,37.43
2019-05-20T05:38:00.614Z,36.42
2019-05-20T05:40:08.654Z,37.74
2019-05-20T05:42:15.095Z,37.60
2019-05-20T05:44:21.656Z,37.03
2019-05-20T05:46:28.057Z,36.33
2019-05-20T05:48:34.442Z,37.27
2019-05-20T05:50:41.025Z,37.04
2019-05-20T05:52:47.420Z,36.57
2019-05-20T05:54:53.919Z,35.95
2019-05-20T05:57:00.401Z,36.72
2019-05-20T05:59:06.789Z,35.41
2019-05-20T06:01:13.241Z,35.89
2019-05-20T06:03:19.794Z,35.84
2019-05-20T06:05:26.361Z,34.31
2019-05-20T06:07:32.754Z,34.24
2019-05-20T06:09:39.137Z,36.70
2019-05-20T06:11:45.733Z,35.98
2019-05-20T06:13:52.326Z,34.70
2019-05-20T06:15:58.714Z,36.14
2019-05-20T06:18:05.319Z,35.14
2019-05-20T06:20:12.617Z,34.05
2019-05-20T06:22:19.150Z,32.19
2019-05-20T06:24:25.618Z,31.59
2019-05-20T06:26:32.171Z,33.56
2019-05-20T06:28:38.561Z,34.20
2019-05-20T06:30:46.433Z,34.77
2019-05-20T06:32:52.901Z,34.78
2019-05-20T06:35:00.227Z,34.17
2019-05-20T06:37:12.386Z,34.25
2019-05-20T06:39:19.375Z,32.95
2019-05-20T06:41:25.925Z,33.04
2019-05-20T06:43:32.534Z,33.16
2019-05-20T06:45:39.000Z,31.99
2019-05-20T06:47:45.499Z,31.41
2019-05-20T06:49:51.971Z,30.23
2019-05-20T06:51:58.368Z,31.65
2019-05-20T06:54:06.179Z,31.27
2019-05-20T06:56:12.594Z,29.91
2019-05-20T06:58:19.146Z,28.54
2019-05-20T07:00:39.944Z,27.11
2019-05-20T07:02:46.527Z,28.37
2019-05-20T07:04:52.990Z,28.48
2019-05-20T07:06:59.524Z,28.32
2019-05-20T07:09:07.725Z,28.25
2019-05-20T07:11:14.312Z,27.78
2019-05-20T07:13:21.830Z,27.09
2019-05-20T07:15:28.373Z,28.91
2019-05-20T07:17:34.893Z,27.39
2019-05-20T07:19:41.727Z,27.58
2019-05-20T07:21:48.239Z,27.80
2019-05-20T07:23:54.766Z,28.80
2019-05-20T07:26:01.236Z,31.97
2019-05-20T07:28:07.811Z,31.46
2019-05-20T07:30:15.890Z,31.08
2019-05-20T07:32:22.333Z,29.67
2019-05-20T07:34:28.802Z,27.99
2019-05-20T07:36:35.320Z,28.08
2019-05-20T07:38:41.825Z,29.68
2019-05-20T07:40:48.291Z,28.72
2019-05-20T07:42:54.729Z,28.50
2019-05-20T07:45:01.238Z,29.71
2019-05-20T07:47:10.900Z,29.63
2019-05-20T07:49:17.708Z,29.86
2019-05-20T07:51:25.285Z,29.42
2019-05-20T07:53:33.764Z,29.02
2019-05-20T07:55:59.655Z,28.56
2019-05-20T07:58:10.289Z,29.78
2019-05-20T08:00:17.145Z,29.96
2019-05-20T08:02:24.505Z,30.72
2019-05-20T08:04:31.089Z,32.13
2019-05-20T08:06:37.749Z,35.09
2019-05-20T08:08:44.393Z,38.44
2019-05-20T08:10:51.052Z,40.29
2019-05-20T08:12:57.661Z,42.81
2019-05-20T08:15:07.128Z,43.88
2019-05-20T08:17:13.709Z,45.02
2019-05-20T08:19:20.249Z,45.59
2019-05-20T08:21:26.830Z,44.99
2019-05-20T08:23:33.429Z,45.47
2019-05-20T08:25:39.905Z,45.37
2019-05-20T08:27:46.425Z,45.68
2019-05-20T08:29:52.973Z,45.62
2019-05-20T08:31:59.513Z,45.74
2019-05-20T08:34:06.117Z,45.03
2019-05-20T08:36:12.568Z,45.33
2019-05-20T08:38:19.097Z,44.40
2019-05-20T08:40:25.648Z,44.75
2019-05-20T08:42:32.048Z,45.81
2019-05-20T08:44:38.548Z,45.80
2019-05-20T08:46:45.008Z,46.18
2019-05-20T08:48:51.487Z,45.80
2019-05-20T08:50:58.114Z,46.46
2019-05-20T08:53:04.707Z,47.67
2019-05-20T08:55:11.385Z,46.61
2019-05-20T08:57:18.170Z,47.25
2019-05-20T08:59:25.844Z,47.87
2019-05-20T09:01:32.286Z,48.27
2019-05-20T09:03:38.686Z,48.74
2019-05-20T09:05:45.136Z,49.79
2019-05-20T09:08:02.151Z,49.32
2019-05-20T09:09:59.842Z,49.33
2019-05-20T09:12:07.088Z,49.27
2019-05-20T09:14:13.629Z,48.59
2019-05-20T09:16:20.196Z,48.14
2019-05-20T09:18:26.605Z,47.98
2019-05-20T09:20:33.207Z,49.06
2019-05-20T09:22:39.843Z,48.83
2019-05-20T09:24:46.457Z,49.65
2019-05-20T09:26:52.995Z,50.63
2019-05-20T09:28:59.542Z,50.42
2019-05-20T09:31:06.544Z,50.29
2019-05-20T09:33:13.182Z,49.11
2019-05-20T11:10:14.805Z,48.50
2019-05-20T11:12:21.314Z,48.94
2019-05-20T11:14:27.832Z,48.18
2019-05-20T11:16:34.246Z,48.40
2019-05-20T11:18:40.780Z,47.82
2019-05-20T11:20:47.286Z,47.59
2019-05-20T11:22:53.789Z,47.10
2019-05-20T11:25:00.234Z,46.95
2019-05-20T11:27:06.625Z,47.01
2019-05-20T11:29:13.143Z,46.82
2019-05-20T11:31:19.604Z,47.08
2019-05-20T11:33:25.996Z,48.04
2019-05-20T11:35:32.706Z,48.51
2019-05-20T11:37:39.166Z,48.63
2019-05-20T11:39:45.551Z,49.28
2019-05-20T11:41:54.189Z,49.84
2019-05-20T11:44:00.064Z,50.22
2019-05-20T11:46:06.620Z,50.29
2019-05-20T11:48:13.137Z,50.11
2019-05-20T11:50:20.128Z,50.10
2019-05-20T11:52:26.587Z,50.26
2019-05-20T11:54:33.059Z,50.32
2019-05-20T11:56:39.543Z,50.34
2019-05-20T11:58:45.963Z,50.36
2019-05-20T12:00:52.700Z,50.05
2019-05-20T12:02:59.376Z,50.95
2019-05-20T12:05:08.879Z,50.70
2019-05-20T12:07:15.275Z,50.52
2019-05-20T12:09:21.821Z,50.43
2019-05-20T12:11:28.403Z,50.80
2019-05-20T12:13:34.858Z,50.57
2019-05-20T12:15:41.265Z,50.99
2019-05-20T12:17:47.741Z,50.76
2019-05-20T12:19:54.141Z,51.12
2019-05-20T12:22:00.546Z,51.42
2019-05-20T12:24:07.112Z,52.02
2019-05-20T12:26:13.509Z,52.49
2019-05-20T12:28:20.015Z,52.94
2019-05-20T12:30:26.521Z,53.71
2019-05-20T12:32:32.980Z,54.26
2019-05-20T12:34:39.407Z,54.72
2019-05-20T12:36:45.866Z,55.37
2019-05-20T12:38:52.411Z,55.71
2019-05-20T12:40:58.812Z,56.83
2019-05-20T12:43:05.280Z,60.49
2019-05-20T12:45:12.573Z,61.70
2019-05-20T12:47:19.035Z,65.50
2019-05-20T12:49:26.747Z,69.02
2019-05-20T12:51:33.382Z,71.06
2019-05-20T12:53:39.917Z,74.63
2019-05-20T12:55:46.399Z,74.75
2019-05-20T12:57:53.888Z,73.13
2019-05-20T13:00:00.275Z,73.78
2019-05-20T13:02:08.340Z,72.99
2019-05-20T13:04:14.763Z,71.77
2019-05-20T13:06:21.150Z,73.86
2019-05-20T13:08:29.270Z,73.57
2019-05-20T13:10:35.732Z,73.58
2019-05-20T13:12:42.348Z,74.14
2019-05-20T13:14:48.759Z,73.98
2019-05-20T13:16:55.157Z,73.18
2019-05-20T13:19:01.637Z,73.91
2019-05-20T13:21:08.096Z,74.98
2019-05-20T13:23:15.854Z,75.95
2019-05-20T13:25:22.625Z,77.18
2019-05-20T13:27:29.193Z,75.74
2019-05-20T13:29:35.584Z,76.55
2019-05-20T13:31:41.975Z,76.69
2019-05-20T13:33:48.382Z,78.04
2019-05-20T13:35:54.759Z,78.91
2019-05-20T13:38:01.158Z,78.88
2019-05-20T13:40:09.323Z,78.53
2019-05-20T13:42:15.842Z,79.60
2019-05-20T13:44:22.250Z,79.71
2019-05-20T13:46:28.646Z,80.29
2019-05-20T13:48:35.053Z,81.18
2019-05-20T13:50:41.524Z,80.41
2019-05-20T13:52:48.004Z,80.84
2019-05-20T13:54:54.400Z,80.95
2019-05-20T13:57:00.933Z,81.04
2019-05-20T13:59:07.405Z,82.12
2019-05-20T14:01:13.816Z,82.06
2019-05-20T14:03:20.330Z,82.32
2019-05-20T14:05:26.800Z,83.29
2019-05-20T14:07:33.204Z,83.54
2019-05-20T14:09:39.669Z,83.45
2019-05-20T14:11:46.227Z,84.45
2019-05-20T14:13:52.697Z,84.39
2019-05-20T14:15:59.268Z,84.32
2019-05-20T14:18:05.748Z,84.70
2019-05-20T14:20:12.722Z,84.69
2019-05-20T14:22:19.123Z,85.06
2019-05-20T14:24:25.521Z,85.50
2019-05-20T14:26:31.949Z,85.17
2019-05-20T14:28:38.528Z,84.92
2019-05-20T14:30:45.620Z,84.49
2019-05-20T14:32:52.046Z,84.48
2019-05-20T14:34:58.652Z,84.73
2019-05-20T14:37:05.112Z,85.17
2019-05-20T14:39:11.499Z,84.63
2019-05-20T14:41:21.522Z,84.51
2019-05-20T14:43:27.167Z,84.47
2019-05-20T14:45:33.760Z,84.04
2019-05-20T14:47:40.197Z,84.04
2019-05-20T14:49:46.579Z,83.96
2019-05-20T14:51:52.969Z,83.15
2019-05-20T14:53:59.394Z,83.86
2019-05-20T14:56:05.869Z,82.72
2019-05-20T14:58:12.415Z,82.33
2019-05-20T15:00:21.429Z,81.94
2019-05-20T15:02:30.864Z,81.55
2019-05-20T15:04:36.078Z,81.52
2019-05-20T15:06:45.362Z,80.28
2019-05-20T15:08:51.857Z,80.66
2019-05-20T15:10:58.352Z,80.89
2019-05-20T15:13:05.441Z,79.00
2019-05-20T15:15:12.750Z,78.45
2019-05-20T15:17:19.229Z,77.95
2019-05-20T15:19:25.657Z,77.23
2019-05-20T15:21:32.242Z,77.22
2019-05-20T15:23:38.795Z,77.00
2019-05-20T15:25:46.344Z,76.65
2019-05-20T15:27:52.986Z,76.04
2019-05-20T15:29:59.580Z,76.27
2019-05-20T15:32:06.058Z,77.30
2019-05-20T15:34:12.427Z,77.43
2019-05-20T15:36:18.883Z,77.76
2019-05-20T15:38:25.359Z,78.26
2019-05-20T15:40:31.874Z,78.41
2019-05-20T15:42:38.308Z,78.72
2019-05-20T15:44:44.757Z,78.80
2019-05-20T15:46:51.236Z,78.84
2019-05-20T15:49:02.983Z,79.11
2019-05-20T15:51:09.462Z,78.63
2019-05-20T15:53:15.921Z,78.71
2019-05-20T15:55:22.478Z,79.36
2019-05-20T15:57:28.919Z,79.98
2019-05-20T15:59:45.486Z,80.46
2019-05-20T16:01:44.574Z,80.43
2019-05-20T16:03:51.711Z,79.50
2019-05-20T16:05:59.961Z,78.74
2019-05-20T16:08:06.589Z,80.11
2019-05-20T16:10:13.142Z,81.13
2019-05-20T16:12:19.683Z,81.00
2019-05-20T16:14:26.171Z,81.69
2019-05-20T16:16:32.571Z,81.85
2019-05-20T16:18:39.085Z,82.53
2019-05-20T16:20:45.504Z,82.97
2019-05-20T16:22:51.973Z,81.59
2019-05-20T16:24:58.373Z,82.46
2019-05-20T16:27:05.021Z,82.17
2019-05-20T16:29:11.546Z,80.93
2019-05-20T16:31:18.104Z,81.73
2019-05-20T16:33:24.559Z,81.50
2019-05-20T16:35:31.015Z,82.14
2019-05-20T16:37:37.661Z,82.27
2019-05-20T16:39:44.187Z,83.26
2019-05-20T16:41:50.588Z,84.29
2019-05-20T16:43:57.480Z,83.89
2019-05-20T16:46:04.902Z,84.46
2019-05-20T16:48:11.396Z,84.64
2019-05-20T16:50:19.522Z,84.83
2019-05-20T16:52:26.247Z,85.44
2019-05-20T16:54:32.707Z,85.46
2019-05-20T16:56:40.546Z,85.79
2019-05-20T16:58:47.164Z,85.83
2019-05-20T17:00:53.697Z,86.02
2019-05-20T17:03:00.157Z,86.00
2019-05-20T17:05:08.130Z,85.81
2019-05-20T17:07:16.423Z,85.67
2019-05-20T17:09:22.937Z,86.18
2019-05-20T17:11:29.423Z,85.94
2019-05-20T17:13:36.470Z,86.13
2019-05-20T17:15:42.915Z,86.39
2019-05-20T17:17:49.386Z,86.50
2019-05-20T17:19:55.874Z,86.87
2019-05-20T17:22:06.166Z,87.08
2019-05-20T17:24:14.249Z,87.30
2019-05-20T17:26:21.773Z,87.58
2019-05-20T17:28:28.353Z,87.45
2019-05-20T17:30:44.867Z,87.68
2019-05-20T17:32:43.223Z,88.67
2019-05-20T17:34:49.673Z,88.21
2019-05-20T17:36:56.774Z,88.18
2019-05-20T17:39:05.059Z,88.52
2019-05-20T17:41:11.747Z,88.54
2019-05-20T17:43:20.334Z,88.69
2019-05-20T17:45:27.065Z,88.91
2019-05-20T17:47:33.730Z,89.13
2019-05-20T17:49:40.288Z,88.86
2019-05-20T17:51:46.743Z,88.91
2019-05-20T17:53:53.227Z,89.36
2019-05-20T17:55:59.822Z,89.79
2019-05-20T17:58:07.425Z,89.68
2019-05-20T18:00:19.036Z,89.84
2019-05-20T18:02:25.602Z,90.16
2019-05-20T18:04:31.998Z,90.50
2019-05-20T18:06:38.386Z,90.52
2019-05-20T18:08:46.465Z,90.73
2019-05-20T18:10:52.841Z,90.77
2019-05-20T18:12:59.238Z,90.65
2019-05-20T18:15:07.026Z,90.74
2019-05-20T18:17:13.497Z,90.66
2019-05-20T18:19:19.916Z,90.55
2019-05-20T18:21:26.313Z,90.63
2019-05-20T18:23:32.744Z,90.75
2019-05-20T18:25:39.852Z,90.87
2019-05-20T18:27:46.310Z,91.00
2019-05-20T18:29:52.888Z,91.25
2019-05-20T18:31:59.417Z,91.44
2019-05-20T18:34:06.010Z,91.75
2019-05-20T18:36:12.452Z,92.03
2019-05-20T18:38:19.831Z,92.13
2019-05-20T18:40:26.523Z,92.44
2019-05-20T18:42:33.004Z,92.54
2019-05-20T18:44:39.416Z,92.66
2019-05-20T18:46:45.847Z,92.73
2019-05-20T18:48:52.221Z,92.79
2019-05-20T18:50:58.615Z,92.77
2019-05-20T18:53:05.087Z,92.81
2019-05-20T18:55:11.719Z,92.81
2019-05-20T18:57:18.105Z,92.98
2019-05-20T18:59:24.591Z,93.06
2019-05-20T19:01:31.136Z,92.99
2019-05-20T19:03:37.600Z,93.34
2019-05-20T19:05:44.219Z,93.28
2019-05-20T19:07:50.633Z,93.18
2019-05-20T19:09:57.182Z,93.06
2019-05-20T19:12:03.661Z,92.89
2019-05-20T19:14:10.298Z,92.74
2019-05-20T19:16:16.839Z,92.61
2019-05-20T19:18:23.314Z,92.54
2019-05-20T19:20:29.805Z,92.42
2019-05-20T19:22:36.260Z,92.38
2019-05-20T19:24:42.660Z,92.45
2019-05-20T19:26:49.197Z,92.41
2019-05-20T19:28:55.590Z,92.41
2019-05-20T19:31:02.130Z,92.39
2019-05-20T19:33:09.091Z,92.30
2019-05-20T19:35:16.095Z,92.25
2019-05-20T19:37:22.876Z,92.20
2019-05-20T19:39:29.352Z,92.20
2019-05-20T19:41:35.845Z,92.12
2019-05-20T19:43:43.604Z,92.11
2019-05-20T19:45:50.089Z,92.15
2019-05-20T19:47:56.640Z,92.34
2019-05-20T19:50:03.219Z,92.42
2019-05-20T19:52:10.073Z,92.40
2019-05-20T19:54:17.641Z,92.57
2019-05-20T19:56:24.111Z,92.67
2019-05-20T19:58:30.587Z,92.83
2019-05-20T20:00:38.123Z,92.99
2019-05-20T20:02:45.118Z,93.03
2019-05-20T20:04:51.690Z,93.08
2019-05-20T20:06:58.196Z,93.12
2019-05-20T20:09:06.099Z,93.22
2019-05-20T20:11:12.571Z,93.28
2019-05-20T20:13:19.058Z,93.33
2019-05-20T20:15:25.460Z,93.39
2019-05-20T20:17:31.882Z,93.48
2019-05-20T20:19:38.400Z,93.54
2019-05-20T20:21:44.883Z,93.58
2019-05-20T20:23:51.409Z,93.62
2019-05-20T20:25:57.912Z,93.68
2019-05-20T20:28:06.087Z,93.73
2019-05-20T20:30:12.922Z,93.75
2019-05-20T20:32:35.171Z,93.78
2019-05-20T20:34:30.474Z,93.79
2019-05-20T20:36:35.744Z,93.80
2019-05-20T20:38:43.447Z,93.83
2019-05-20T20:40:49.981Z,93.92
2019-05-20T20:42:56.432Z,94.12
2019-05-20T20:45:03.067Z,94.21
2019-05-20T20:47:10.804Z,94.23
2019-05-20T20:49:17.303Z,94.37
2019-05-20T20:51:24.840Z,94.44
2019-05-20T20:53:31.273Z,94.61
2019-05-20T20:55:37.766Z,94.81
2019-05-20T20:57:47.821Z,94.88
2019-05-20T20:59:54.212Z,94.94
2019-05-20T21:02:00.734Z,95.01
2019-05-20T21:04:07.199Z,95.11
2019-05-20T21:06:16.743Z,95.22
2019-05-20T21:08:23.294Z,95.34
2019-05-20T21:10:29.708Z,95.53
2019-05-20T21:12:36.569Z,95.72
2019-05-20T21:14:43.030Z,95.88
2019-05-20T21:16:49.534Z,95.95
2019-05-20T21:18:55.937Z,95.98
2019-05-20T21:21:02.563Z,96.06
2019-05-20T21:23:08.988Z,96.07
2019-05-20T21:25:15.605Z,96.01
2019-05-20T21:27:22.112Z,95.97
2019-05-20T21:29:32.341Z,95.87
2019-05-20T21:31:36.609Z,95.81
2019-05-20T21:33:43.061Z,95.81
2019-05-20T21:35:49.449Z,95.73
2019-05-20T21:37:55.859Z,95.64
2019-05-20T21:40:02.335Z,95.59
2019-05-20T21:42:09.158Z,95.49
2019-05-20T21:44:16.991Z,95.44
2019-05-20T21:46:23.389Z,95.31
2019-05-20T21:48:29.786Z,95.22
2019-05-20T21:50:36.191Z,95.15
2019-05-20T21:52:42.601Z,95.10
2019-05-20T21:54:48.999Z,95.09
2019-05-20T21:56:55.435Z,95.19
2019-05-20T21:59:01.910Z,95.34
2019-05-20T22:01:08.372Z,95.42
2019-05-20T22:03:23.901Z,95.49
2019-05-20T22:05:24.464Z,95.60
2019-05-20T22:07:31.292Z,95.60
2019-05-20T22:09:38.015Z,95.64
2019-05-20T22:11:44.476Z,95.71
2019-05-20T22:13:52.744Z,95.77
2019-05-20T22:15:59.143Z,95.91
2019-05-20T22:18:05.609Z,95.98
2019-05-20T22:20:12.221Z,96.03
2019-05-20T22:22:26.145Z,96.07
2019-05-20T22:24:32.539Z,96.14
2019-05-20T22:26:38.920Z,96.19
2019-05-20T22:28:45.424Z,96.19
2019-05-20T22:30:51.823Z,96.21
2019-05-20T22:32:58.213Z,96.23
2019-05-20T22:35:07.240Z,96.16
2019-05-20T22:37:12.833Z,96.08
2019-05-20T22:39:19.107Z,96.07
2019-05-20T22:41:25.572Z,96.10
2019-05-20T22:43:32.079Z,96.13
2019-05-20T22:45:38.476Z,96.13
2019-05-20T22:47:44.865Z,96.17
2019-05-20T22:49:51.321Z,96.16
2019-05-20T22:51:57.716Z,96.17
2019-05-20T22:54:04.210Z,96.21
2019-05-20T22:56:10.713Z,96.23
2019-05-20T22:58:17.211Z,96.26
2019-05-20T23:00:23.739Z,96.28
2019-05-20T23:02:30.144Z,96.30
2019-05-20T23:04:36.952Z,96.38
2019-05-20T23:06:43.339Z,96.41
2019-05-20T23:08:49.751Z,96.36
2019-05-20T23:10:56.140Z,96.40
2019-05-20T23:13:02.599Z,96.40
2019-05-20T23:15:10.298Z,96.39
2019-05-20T23:17:17.119Z,96.36
2019-05-20T23:19:23.594Z,96.37
2019-05-20T23:21:29.988Z,96.35
2019-05-20T23:23:36.362Z,96.34
2019-05-20T23:25:44.011Z,96.32
2019-05-20T23:27:53.108Z,96.32
2019-05-20T23:29:59.485Z,96.31
2019-05-20T23:32:05.926Z,96.33
2019-05-20T23:34:13.382Z,96.32
2019-05-20T23:36:20.093Z,96.32
2019-05-20T23:38:26.592Z,96.34
2019-05-20T23:40:33.118Z,96.29
2019-05-20T23:42:39.508Z,96.26
2019-05-20T23:44:45.941Z,96.25
2019-05-20T23:46:52.334Z,96.21
2019-05-20T23:49:00.411Z,96.17
2019-05-20T23:51:06.855Z,96.17
2019-05-20T23:53:13.411Z,96.15
2019-05-20T23:55:19.865Z,96.11
2019-05-20T23:57:26.366Z,96.07
2019-05-20T23:59:32.748Z,96.05
